WetterOnline ( https://www.wetteronline.de )

Wetter aktuell Luckenwalde

Aktuelles Wetter: Baruth (55m)

6-stündlich | Neueste Meldungen
Ortszeit Temperatur Wetter
Do, 06.05. 14:00 7.0° C leichter Regen
Do, 06.05. 8:00 6.2° C fast wolkenlos
Do, 06.05. 2:00 5.5° C wolkenlos
Mi, 05.05. 20:00 7.7° C bewölkt
Mi, 05.05. 14:00 10.6° C leicht bewölkt
Mi, 05.05. 8:00 8.7° C bedeckt
Mi, 05.05. 2:00 7.7° C wolkenlos
Di, 04.05. 20:00 11.1° C wolkig
Ortszeit Temperatur Wetter
Do, 06.05. 14:30 7.5° C bewölkt
Do, 06.05. 14:20 7.5° C Sprühregen
Do, 06.05. 14:10 7.1° C leichter Regen
Do, 06.05. 14:00 7.0° C leichter Regen
Do, 06.05. 13:50 7.0° C leichter Regen
Do, 06.05. 13:40 7.5° C bewölkt
Do, 06.05. 13:30 7.0° C leichter Regen
Do, 06.05. 13:00 8.0° C wolkig
Ortszeit Relative Feuchte Sichtweite
Do, 06.05. 14:00 84% 19 km
Do, 06.05. 8:00 73% 50 km
Do, 06.05. 2:00 66% 45 km
Mi, 05.05. 20:00 68% 55 km
Mi, 05.05. 14:00 62% 45 km
Mi, 05.05. 8:00 66% 55 km
Mi, 05.05. 2:00 79% 55 km
Di, 04.05. 20:00 68% 50 km
Ortszeit Relative Feuchte Sichtweite
Do, 06.05. 14:30 86% 35 km
Do, 06.05. 14:20 86% -
Do, 06.05. 14:10 81% -
Do, 06.05. 14:00 84% 19 km
Do, 06.05. 13:50 84% -
Do, 06.05. 13:40 79% -
Do, 06.05. 13:30 79% 50 km
Do, 06.05. 13:00 66% 45 km
Ortszeit Niederschlagsmenge Niederschlagsart
Do, 06.05. 14:00 1 l/m2 in 6 Std. Regen
Do, 06.05. 8:00 0.1 l/m2 in 12 Std. -
Do, 06.05. 2:00 0.1 l/m2 in 6 Std. Regen
Mi, 05.05. 20:00 0.5 l/m2 in 12 Std. Regen
Mi, 05.05. 14:00 0.4 l/m2 in 6 Std. Regen
Mi, 05.05. 8:00 0.0 l/m2 in 12 Std. -
Mi, 05.05. 2:00 0.0 l/m2 in 6 Std. -
Di, 04.05. 20:00 2 l/m2 in 12 Std. Regen
Ortszeit Niederschlagsmenge Niederschlagsart
Do, 06.05. 14:30 0.2 l/m2 in 1 Std. Schneeregen
Do, 06.05. 14:20 keine Meldung -
Do, 06.05. 14:10 keine Meldung -
Do, 06.05. 14:00 1.1 l/m2 in 1 Std. Regen
Do, 06.05. 13:50 keine Meldung -
Do, 06.05. 13:40 keine Meldung -
Do, 06.05. 13:30 0.6 l/m2 in 1 Std. -
Do, 06.05. 13:00 0.1 l/m2 in 1 Std. Regen
Ortszeit Stärke Spitze Richtung
km/h Bft. km/h Grad Sektor
Do, 06.05. 14:00 22 4 63 260° W
Do, 06.05. 8:00 18 3 32 230° SW
Do, 06.05. 2:00 22 4 63 250° W
Mi, 05.05. 20:00 31 5 67 270° W
Mi, 05.05. 14:00 26 4 69 230° SW
Mi, 05.05. 8:00 28 4 46 240° SW
Mi, 05.05. 2:00 18 3 54 230° SW
Di, 04.05. 20:00 31 5 67 220° SW
Ortszeit Stärke Spitze Richtung
km/h Bft. km/h Grad Sektor
Do, 06.05. 14:30 14 3 29 270° W
Do, 06.05. 14:20 14 3 - 270° W
Do, 06.05. 14:10 19 3 - 260° W
Do, 06.05. 14:00 22 4 61 260° W
Do, 06.05. 13:50 22 4 - 260° W
Do, 06.05. 13:40 20 4 - 250° W
Do, 06.05. 13:30 22 4 61 280° W
Do, 06.05. 13:00 47 6 65 260° W
Ortszeit Untergrenze Bedeckung Gattung
total tief tief mittel hoch
Do, 06.05. 14:00 630 m 7/8 7/8 - - -
Do, 06.05. 8:00 2100 m 0/8 0/8 - - -
Do, 06.05. 2:00 - 0/8 0/8 - - -
Mi, 05.05. 20:00 1170 m 7/8 7/8 - - -
Mi, 05.05. 14:00 1290 m 4/8 1/8 - - -
Mi, 05.05. 8:00 5400 m 8/8 8/8 - - -
Mi, 05.05. 2:00 - 0/8 0/8 - - -
Di, 04.05. 20:00 1500 m 8/8 2/8 - - -
Ortszeit Bedeckungsgrad in Achtel und Wolkenuntergrenze
Do, 06.05. 14:30 1(180m) 7(1290m) 7(1500m)
Do, 06.05. 14:20 1(180m) 7(1290m) 7(1500m)
Do, 06.05. 14:10 1(600m) 6(1110m) 7(1320m)
Do, 06.05. 14:00 4(630m) 7(1290m) 7(1500m)
Do, 06.05. 13:50 4(630m) 7(1290m) 7(1500m)
Do, 06.05. 13:40 2(660m) 7(1350m) 7(1500m)
Do, 06.05. 13:30 1(870m) 7(1500m) 7(1800m)
Do, 06.05. 13:00 1(900m) 7(3300m) 8(3900m)
Ortszeit Luftdruck NN (hPa) Tendenz (hPa in 3 Std.)
Do, 06.05. 14:00 1007 - 0,1
Do, 06.05. 8:00 1008 + 0,4
Do, 06.05. 2:00 1007 + 0,9
Mi, 05.05. 20:00 1003 + 1,7
Mi, 05.05. 14:00 1000 + 0,5
Mi, 05.05. 8:00 999 + 0,4
Mi, 05.05. 2:00 999 0,0
Di, 04.05. 20:00 999 - 0,6
Ortszeit Luftdruck NN (hPa) Tendenz (hPa in 3 Std.)
Do, 06.05. 14:30 1007 + 0,1
Do, 06.05. 14:20 1007 keine Meldung
Do, 06.05. 14:10 1008 keine Meldung
Do, 06.05. 14:00 1007 - 0,1
Do, 06.05. 13:50 1007 keine Meldung
Do, 06.05. 13:40 1008 keine Meldung
Do, 06.05. 13:30 1008 + 0,1
Do, 06.05. 13:00 1007 - 0,2
Ortszeit Schneehöhe (cm)
Do, 06.05. 14:00 0
Do, 06.05. 8:00 0
Do, 06.05. 2:00 0
Mi, 05.05. 20:00 0
Mi, 05.05. 14:00 0
Mi, 05.05. 8:00 0
Mi, 05.05. 2:00 0
Di, 04.05. 20:00 0
Ortszeit Schneehöhe (cm)
Do, 06.05. 14:30 0
Do, 06.05. 14:20 0
Do, 06.05. 14:10 0
Do, 06.05. 14:00 0
Do, 06.05. 13:50 0
Do, 06.05. 13:40 0
Do, 06.05. 13:30 0
Do, 06.05. 13:00 0
Link zu dieser Seite / Seite empfehlen

Das Wetter in ...